Cold Lake, Canada
Current Conditions -  °F | °C
As of 7:00 PM on Sunday 21 Dec 2014 (Local Time) from CYOD Reporting Station
Haze Haze  
Wind Chill: 19°   Ceiling: 400
Heat Index: 19°   Visibility: 5mi
Dew Point: 19°   Wind: 0mph
Humidity: 100%   Direction: NA
Pressure: 29.55"   Gusts: NA
Location:  54.47°N, 110.17°W
Report Text: CYOD 220200Z 00000KT 5SM BR OVC004 M07/M07 A2955 RMK ST8SLP040
Loading
Personal Weather Stations






























Interactive Weather Map New forecast layout! Learn more

10-Day Weather Forecast

Advertisements
Track Severe Weather on mobile